Accueil
METAR-TAF:

METAR-TAF

Aéroports :

Wendover Airport

Wendover, Utah, États-Unis

latitude: 40-44N, longitude: 114-02W, altitude: 1291 m

Observation

Le bulletin a été fait il y a 28 minutes, à 20:56 UTC
Vent 5 kt de est
Température 25°C
Humidité 15%
Pression 1024 hPa
Visibilité: 16.1 km
Ciel clair

METAR: KENV 262056Z AUTO 10005KT 10SM CLR 25/M03 A3023 RMK AO2 SLP209 6//// T02501028 58017 PNO $

Heure: 15:24 (21:24 UTC)

Prévision

Le bulletin a été fait il y a 3 heures et 51 minutes, à 17:33 UTC
Prévision valable du 26 à 18 UTC au 27 à 18 UTC
Vent 5 kt de direction variable
Visibilité: 10 km
Ciel clair
A partir de 26 à 2000 UTC
Vent 7 kt de sud-est
Visibilité: 10 km
Ciel clair
A partir de 27 à 0300 UTC
Vent 4 kt de direction variable
Visibilité: 10 km
Quelques nuages à une hauteur de 25000 ft

TAF: KENV 261733Z 2618/2718 VRB05KT P6SM SKC FM262000 14007KT P6SM SKC FM270300 VRB04KT P6SM FEW250

Observations et prévisions météorologiques de plus de 4000 aéroports (messages METAR et TAF).

Les stations disponibles sont représentées par des disques jaunes et rouges sur la carte.

Passer la souris dessus pour voir le nom de la station.

Cliquer dessus pour voir les observations et prévisions météorologiques.

Pour changer de carte: cliquez sur les boutons verts avec une croix noire pour zoomer, sur le bouton vert avec un tiret pour effectuer un zoom arrière, ou sur les flèches vertes pour les cartes adjacentes.


METAR-TAF: